createdAt,value
2023-05-07T00:01:22.382Z,14.80
2023-05-07T00:03:50.775Z,14.80
2023-05-07T00:06:19.158Z,14.80
2023-05-07T00:08:47.364Z,14.80
2023-05-07T00:11:15.771Z,14.70
2023-05-07T00:13:44.056Z,14.70
2023-05-07T00:16:12.283Z,14.70
2023-05-07T00:18:41.897Z,14.70
2023-05-07T00:21:10.241Z,14.70
2023-05-07T00:23:38.888Z,14.60
2023-05-07T00:26:07.219Z,14.60
2023-05-07T00:28:35.659Z,14.60
2023-05-07T00:31:03.911Z,14.50
2023-05-07T00:33:32.131Z,14.50
2023-05-07T00:36:02.976Z,14.50
2023-05-07T00:38:31.350Z,14.50
2023-05-07T00:40:59.526Z,14.50
2023-05-07T00:43:28.508Z,14.40
2023-05-07T00:45:56.880Z,14.50
2023-05-07T00:48:25.443Z,14.40
2023-05-07T00:50:54.014Z,14.50
2023-05-07T00:53:23.626Z,14.50
2023-05-07T00:55:51.999Z,14.50
2023-05-07T00:58:20.820Z,14.50
2023-05-07T01:00:49.075Z,14.50
2023-05-07T01:03:17.369Z,14.50
2023-05-07T01:05:48.084Z,14.50
2023-05-07T01:08:18.877Z,14.50
2023-05-07T01:10:49.059Z,14.50
2023-05-07T01:13:18.207Z,14.50
2023-05-07T01:15:46.526Z,14.50
2023-05-07T01:18:16.011Z,14.60
2023-05-07T01:20:44.737Z,14.50
2023-05-07T01:23:14.664Z,14.50
2023-05-07T01:25:42.947Z,14.60
2023-05-07T01:28:11.149Z,14.50
2023-05-07T01:30:51.570Z,14.60
2023-05-07T01:33:23.580Z,14.60
2023-05-07T01:35:55.363Z,14.60
2023-05-07T01:38:25.875Z,14.50
2023-05-07T01:40:55.347Z,14.50
2023-05-07T01:43:23.587Z,14.50
2023-05-07T01:45:52.460Z,14.50
2023-05-07T01:48:21.436Z,14.50
2023-05-07T01:50:50.984Z,14.50
2023-05-07T01:53:19.221Z,14.40
2023-05-07T01:55:48.748Z,14.40
2023-05-07T01:58:17.001Z,14.40
2023-05-07T02:00:45.205Z,14.40
2023-05-07T02:03:13.504Z,14.40
2023-05-07T02:05:41.804Z,14.40
2023-05-07T02:08:10.029Z,14.40
2023-05-07T02:10:38.364Z,14.30
2023-05-07T02:13:08.123Z,14.30
2023-05-07T02:15:36.369Z,14.30
2023-05-07T02:18:07.306Z,14.20
2023-05-07T02:20:35.890Z,14.20
2023-05-07T02:23:04.214Z,14.20
2023-05-07T02:25:32.624Z,14.20
2023-05-07T02:28:00.932Z,14.20
2023-05-07T02:30:31.390Z,14.10
2023-05-07T02:32:59.571Z,14.10
2023-05-07T02:35:27.944Z,14.00
2023-05-07T02:37:56.245Z,14.00
2023-05-07T02:40:24.788Z,14.00
2023-05-07T02:42:52.990Z,13.90
2023-05-07T02:45:21.196Z,13.80
2023-05-07T02:47:50.818Z,13.80
2023-05-07T02:50:19.133Z,13.80
2023-05-07T02:52:48.282Z,13.80
2023-05-07T02:55:16.646Z,13.90
2023-05-07T02:57:44.850Z,14.00
2023-05-07T03:00:15.481Z,14.00
2023-05-07T03:02:44.127Z,14.00
2023-05-07T03:05:15.308Z,14.00
2023-05-07T03:07:46.192Z,13.90
2023-05-07T03:10:14.474Z,13.90
2023-05-07T03:12:42.770Z,13.90
2023-05-07T03:15:13.703Z,13.90
2023-05-07T03:17:41.876Z,14.00
2023-05-07T03:20:12.202Z,14.00
2023-05-07T03:22:42.229Z,14.00
2023-05-07T03:25:11.952Z,14.00
2023-05-07T03:27:40.315Z,14.00
2023-05-07T03:30:10.843Z,13.90
2023-05-07T03:32:39.395Z,14.00
2023-05-07T03:35:08.390Z,13.90
2023-05-07T03:37:36.707Z,13.90
2023-05-07T03:40:08.933Z,13.90
2023-05-07T03:42:37.342Z,14.00
2023-05-07T03:45:07.065Z,14.00
2023-05-07T03:47:35.270Z,14.00
2023-05-07T03:50:03.445Z,14.00
2023-05-07T03:52:31.809Z,14.00
2023-05-07T03:55:00.044Z,14.00
2023-05-07T03:57:29.565Z,14.00
2023-05-07T03:59:57.727Z,14.00
2023-05-07T04:02:26.267Z,14.00
2023-05-07T04:04:55.135Z,14.00
2023-05-07T04:07:24.356Z,14.00
2023-05-07T04:09:52.606Z,14.00
2023-05-07T04:12:20.847Z,14.00
2023-05-07T04:14:50.413Z,14.00
2023-05-07T04:17:18.606Z,14.00
2023-05-07T04:19:46.935Z,14.00
2023-05-07T04:22:15.137Z,14.00
2023-05-07T04:24:43.278Z,14.00
2023-05-07T04:27:11.832Z,14.00
2023-05-07T04:29:43.172Z,14.00
2023-05-07T04:32:13.738Z,14.00
2023-05-07T04:34:42.003Z,14.00
2023-05-07T04:37:10.551Z,14.00
2023-05-07T04:39:38.875Z,14.00
2023-05-07T04:42:08.662Z,14.00
2023-05-07T04:44:38.045Z,14.00
2023-05-07T04:47:06.549Z,14.00
2023-05-07T04:49:36.064Z,14.00
2023-05-07T04:52:04.465Z,14.10
2023-05-07T04:54:32.699Z,14.00
2023-05-07T04:57:00.862Z,14.10
2023-05-07T04:59:29.092Z,14.10
2023-05-07T05:01:57.425Z,14.10
2023-05-07T05:04:25.633Z,14.10
2023-05-07T05:06:55.185Z,14.10
2023-05-07T05:09:23.644Z,14.20
2023-05-07T05:11:51.941Z,14.20
2023-05-07T05:14:20.128Z,14.20
2023-05-07T05:16:48.294Z,14.20
2023-05-07T05:19:16.570Z,14.20
2023-05-07T05:21:44.834Z,14.30
2023-05-07T05:24:14.389Z,14.30
2023-05-07T05:26:42.559Z,14.30
2023-05-07T05:29:11.345Z,14.40
2023-05-07T05:31:39.662Z,14.40
2023-05-07T05:34:07.892Z,14.50
2023-05-07T05:36:36.070Z,14.50
2023-05-07T05:39:04.308Z,14.50
2023-05-07T05:41:33.931Z,14.60
2023-05-07T05:44:02.129Z,14.60
2023-05-07T05:46:30.364Z,14.60
2023-05-07T05:48:58.694Z,14.60
2023-05-07T05:51:27.489Z,14.70
2023-05-07T05:53:55.762Z,14.70
2023-05-07T05:56:24.034Z,14.70
2023-05-07T05:58:53.800Z,14.70
2023-05-07T06:01:22.218Z,14.70
2023-05-07T06:03:50.475Z,14.70
2023-05-07T06:06:18.817Z,14.70
2023-05-07T06:08:46.985Z,14.80
2023-05-07T06:11:15.211Z,14.80
2023-05-07T06:13:43.423Z,14.80
2023-05-07T06:16:13.086Z,14.90
2023-05-07T06:18:41.382Z,14.80
2023-05-07T06:21:09.845Z,14.90
2023-05-07T06:23:38.063Z,14.80
2023-05-07T06:26:06.476Z,14.80
2023-05-07T06:28:36.824Z,14.90
2023-05-07T06:31:18.621Z,14.80
2023-05-07T06:33:47.410Z,14.90
2023-05-07T06:36:15.730Z,15.00
2023-05-07T06:38:44.082Z,15.00
2023-05-07T06:41:12.298Z,15.00
2023-05-07T06:43:40.524Z,15.00
2023-05-07T06:46:09.584Z,15.10
2023-05-07T06:48:39.240Z,15.10
2023-05-07T06:51:07.548Z,15.20
2023-05-07T06:53:36.544Z,15.30
2023-05-07T06:56:04.932Z,15.20
2023-05-07T06:58:33.142Z,15.30
2023-05-07T07:01:01.414Z,15.30
2023-05-07T07:03:29.706Z,15.30
2023-05-07T07:05:59.292Z,15.30
2023-05-07T07:08:27.485Z,15.30
2023-05-07T07:10:55.795Z,15.30
2023-05-07T07:13:24.054Z,15.40
2023-05-07T07:15:53.933Z,15.50
2023-05-07T07:18:22.383Z,15.60
2023-05-07T07:20:50.870Z,15.60
2023-05-07T07:23:22.521Z,15.70
2023-05-07T07:25:50.744Z,15.70
2023-05-07T07:28:19.413Z,15.80
2023-05-07T07:30:47.907Z,15.80
2023-05-07T07:33:16.175Z,15.80
2023-05-07T07:35:45.207Z,15.80
2023-05-07T07:38:13.449Z,15.90
2023-05-07T07:40:44.842Z,15.90
2023-05-07T07:43:13.008Z,15.90
2023-05-07T07:45:42.031Z,16.00
2023-05-07T07:48:10.339Z,16.10
2023-05-07T07:50:45.060Z,16.10
2023-05-07T07:53:13.763Z,16.20
2023-05-07T07:55:43.349Z,16.20
2023-05-07T07:58:14.314Z,16.20
2023-05-07T08:00:42.563Z,16.20
2023-05-07T08:03:12.602Z,16.20
2023-05-07T08:05:41.083Z,16.30
2023-05-07T08:08:09.884Z,16.30
2023-05-07T08:10:40.188Z,16.40
2023-05-07T08:13:09.956Z,16.40
2023-05-07T08:15:38.275Z,16.50
2023-05-07T08:18:06.796Z,16.60
2023-05-07T08:20:40.232Z,16.60
2023-05-07T08:23:08.785Z,16.70
2023-05-07T08:25:37.287Z,16.70
2023-05-07T08:28:07.201Z,16.80
2023-05-07T08:30:38.736Z,16.90
2023-05-07T08:33:07.076Z,17.00
2023-05-07T08:35:35.453Z,17.10
2023-05-07T08:38:03.688Z,17.20
2023-05-07T08:40:37.574Z,17.30
2023-05-07T08:43:08.110Z,17.40
2023-05-07T08:45:40.380Z,17.40
2023-05-07T08:48:19.364Z,17.50
2023-05-07T08:50:47.969Z,17.50
2023-05-07T08:53:17.110Z,17.70
2023-05-07T08:55:45.316Z,17.80
2023-05-07T08:58:13.525Z,17.80
2023-05-07T09:00:44.917Z,17.90
2023-05-07T09:03:13.902Z,17.90
2023-05-07T09:05:42.371Z,17.90
2023-05-07T09:08:10.769Z,17.90
2023-05-07T09:10:38.965Z,17.90
2023-05-07T09:13:07.158Z,18.10
2023-05-07T09:15:35.402Z,18.10
2023-05-07T09:18:05.291Z,18.30
2023-05-07T09:20:33.877Z,18.30
2023-05-07T09:23:02.117Z,18.30
2023-05-07T09:25:31.294Z,18.20
2023-05-07T09:27:59.850Z,18.20
2023-05-07T09:30:31.039Z,18.20
2023-05-07T09:33:00.235Z,18.30
2023-05-07T09:35:30.337Z,18.30
2023-05-07T09:38:03.661Z,18.20
2023-05-07T09:40:33.509Z,18.30
2023-05-07T09:43:13.646Z,18.30
2023-05-07T09:45:43.706Z,18.50
2023-05-07T09:48:12.801Z,18.50
2023-05-07T09:50:51.129Z,18.60
2023-05-07T09:53:20.717Z,18.70
2023-05-07T09:55:49.416Z,18.80
2023-05-07T09:58:18.568Z,18.80
2023-05-07T10:00:47.679Z,18.90
2023-05-07T10:03:16.797Z,19.00
2023-05-07T10:05:48.457Z,19.00
2023-05-07T10:08:17.949Z,19.00
2023-05-07T10:10:47.340Z,19.00
2023-05-07T10:13:15.848Z,19.00
2023-05-07T10:15:44.682Z,19.00
2023-05-07T10:18:14.551Z,18.90
2023-05-07T10:20:48.050Z,18.80
2023-05-07T10:23:21.864Z,18.70
2023-05-07T10:25:51.565Z,18.70
2023-05-07T10:28:21.915Z,18.60
2023-05-07T10:31:03.592Z,18.60
2023-05-07T10:33:34.296Z,18.70
2023-05-07T10:36:05.474Z,18.70
2023-05-07T10:38:34.006Z,18.70
2023-05-07T10:41:02.343Z,18.80
2023-05-07T10:43:42.907Z,18.70
2023-05-07T10:46:17.712Z,18.80
2023-05-07T10:49:13.950Z,18.80
2023-05-07T10:51:43.586Z,18.80
2023-05-07T10:54:28.197Z,18.90
2023-05-07T10:56:56.579Z,19.00
2023-05-07T10:59:43.222Z,19.00
2023-05-07T11:02:15.211Z,19.10
2023-05-07T11:04:43.743Z,19.20
2023-05-07T11:07:31.980Z,19.20
2023-05-07T11:10:06.680Z,19.20
2023-05-07T11:12:57.160Z,19.30
2023-05-07T11:15:44.383Z,19.50
2023-05-07T11:18:14.676Z,19.50
2023-05-07T11:20:57.904Z,19.70
2023-05-07T11:24:02.549Z,19.50
2023-05-07T11:26:33.661Z,19.60
2023-05-07T11:29:02.746Z,19.50
2023-05-07T11:31:31.133Z,19.30
2023-05-07T11:34:00.162Z,19.30
2023-05-07T11:36:33.821Z,19.30
2023-05-07T11:39:04.835Z,19.30
2023-05-07T11:41:37.769Z,19.40
2023-05-07T11:44:06.323Z,19.30
2023-05-07T11:46:35.855Z,19.30
2023-05-07T11:49:04.327Z,19.20
2023-05-07T11:51:34.242Z,19.30
2023-05-07T11:54:09.635Z,19.20
2023-05-07T11:56:39.343Z,19.30
2023-05-07T11:59:07.916Z,19.30
2023-05-07T12:01:38.204Z,19.30
2023-05-07T12:04:07.379Z,19.40
2023-05-07T12:06:40.015Z,19.40
2023-05-07T12:09:12.528Z,19.40
2023-05-07T12:11:41.767Z,19.50
2023-05-07T12:14:12.116Z,19.60
2023-05-07T12:16:42.172Z,19.50
2023-05-07T12:19:15.708Z,19.60
2023-05-07T12:21:44.417Z,19.30
2023-05-07T12:24:14.100Z,19.30
2023-05-07T12:26:43.050Z,19.30
2023-05-07T12:29:11.297Z,19.30
2023-05-07T12:31:43.232Z,19.30
2023-05-07T12:34:13.494Z,19.30
2023-05-07T12:36:42.754Z,19.30
2023-05-07T12:39:12.934Z,19.30
2023-05-07T12:41:56.700Z,19.30
2023-05-07T12:44:25.631Z,19.20
2023-05-07T12:46:54.395Z,19.10
2023-05-07T12:49:25.149Z,19.00
2023-05-07T12:51:54.103Z,19.10
2023-05-07T12:54:34.129Z,19.10
2023-05-07T12:57:07.553Z,19.00
2023-05-07T12:59:37.093Z,19.00
2023-05-07T13:02:06.319Z,19.00
2023-05-07T13:04:34.979Z,19.00
2023-05-07T13:07:03.672Z,19.00
2023-05-07T13:09:33.658Z,18.90
2023-05-07T13:12:02.594Z,18.90
2023-05-07T13:14:30.876Z,18.90
2023-05-07T13:16:59.106Z,18.90
2023-05-07T13:19:29.042Z,18.90
2023-05-07T13:21:57.919Z,18.90
2023-05-07T13:24:26.389Z,18.90
2023-05-07T13:26:56.049Z,18.90
2023-05-07T13:29:29.596Z,18.90
2023-05-07T13:31:58.788Z,18.90
2023-05-07T13:34:27.365Z,19.00
2023-05-07T13:36:56.189Z,18.90
2023-05-07T13:39:24.494Z,19.00
2023-05-07T13:41:52.776Z,19.00
2023-05-07T13:44:22.484Z,18.90
2023-05-07T13:46:51.121Z,18.80
2023-05-07T13:49:19.353Z,18.80
2023-05-07T13:51:47.544Z,18.80
2023-05-07T13:54:16.853Z,18.80
2023-05-07T13:56:45.018Z,18.80
2023-05-07T13:59:15.278Z,18.80
2023-05-07T14:01:44.996Z,18.80
2023-05-07T14:04:13.304Z,18.80
2023-05-07T14:06:41.542Z,18.80
2023-05-07T14:09:09.760Z,18.80
2023-05-07T14:11:37.953Z,18.80
2023-05-07T14:14:06.195Z,18.70
2023-05-07T14:16:34.618Z,18.60
2023-05-07T14:19:04.256Z,18.60
2023-05-07T14:21:33.016Z,18.50
2023-05-07T14:24:01.491Z,18.40
2023-05-07T14:26:30.273Z,18.40
2023-05-07T14:28:59.451Z,18.30
2023-05-07T14:31:28.063Z,18.30
2023-05-07T14:33:58.872Z,18.40
2023-05-07T14:36:28.568Z,18.40
2023-05-07T14:38:56.866Z,18.40
2023-05-07T14:41:25.498Z,18.40
2023-05-07T14:43:53.739Z,18.50
2023-05-07T14:46:22.369Z,18.40
2023-05-07T14:48:50.664Z,18.40
2023-05-07T14:51:18.970Z,18.30
2023-05-07T14:53:48.650Z,18.40
2023-05-07T14:56:17.867Z,18.50
2023-05-07T14:58:46.258Z,18.50
2023-05-07T15:01:14.617Z,18.60
2023-05-07T15:03:43.086Z,18.60
2023-05-07T15:06:11.516Z,18.60
2023-05-07T15:08:39.824Z,18.60
2023-05-07T15:11:09.410Z,18.60
2023-05-07T15:13:37.572Z,18.70
2023-05-07T15:16:06.237Z,18.60
2023-05-07T15:18:34.560Z,18.70
2023-05-07T15:21:02.813Z,18.70
2023-05-07T15:23:31.244Z,18.70
2023-05-07T15:26:00.216Z,18.70
2023-05-07T15:28:29.945Z,18.70
2023-05-07T15:30:58.170Z,18.80
2023-05-07T15:33:26.708Z,18.80
2023-05-07T15:35:55.005Z,18.80
2023-05-07T15:38:23.334Z,18.90
2023-05-07T15:40:51.530Z,18.90
2023-05-07T15:43:19.833Z,18.90
2023-05-07T15:45:49.596Z,18.90
2023-05-07T15:48:17.853Z,19.00
2023-05-07T15:50:46.097Z,19.00
2023-05-07T15:53:14.640Z,19.00
2023-05-07T15:55:44.381Z,19.00
2023-05-07T15:58:12.633Z,19.00
2023-05-07T16:00:42.242Z,19.00
2023-05-07T16:03:11.962Z,19.00
2023-05-07T16:05:40.322Z,18.90
2023-05-07T16:08:08.498Z,18.90
2023-05-07T16:10:36.754Z,18.90
2023-05-07T16:13:04.983Z,18.90
2023-05-07T16:15:33.239Z,18.90
2023-05-07T16:18:01.505Z,18.90
2023-05-07T16:20:31.628Z,18.90
2023-05-07T16:23:00.285Z,18.90
2023-05-07T16:25:28.792Z,18.90
2023-05-07T16:27:57.332Z,18.80
2023-05-07T16:30:25.784Z,18.90
2023-05-07T16:32:54.049Z,18.80
2023-05-07T16:35:22.474Z,18.90
2023-05-07T16:37:52.994Z,18.80
2023-05-07T16:40:21.288Z,18.80
2023-05-07T16:42:49.510Z,18.80
2023-05-07T16:45:18.731Z,18.70
2023-05-07T16:47:47.135Z,18.70
2023-05-07T16:50:15.683Z,18.70
2023-05-07T16:52:43.882Z,18.70
2023-05-07T16:55:14.017Z,18.60
2023-05-07T16:57:42.455Z,18.60
2023-05-07T17:00:12.329Z,18.60
2023-05-07T17:02:40.650Z,18.60
2023-05-07T17:05:10.359Z,18.60
2023-05-07T17:07:38.820Z,18.50
2023-05-07T17:10:08.676Z,18.50
2023-05-07T17:12:38.396Z,18.50
2023-05-07T17:15:07.912Z,18.50
2023-05-07T17:17:36.323Z,18.50
2023-05-07T17:20:05.890Z,18.50
2023-05-07T17:22:34.412Z,18.40
2023-05-07T17:25:04.271Z,18.40
2023-05-07T17:27:34.465Z,18.40
2023-05-07T17:30:04.402Z,18.30
2023-05-07T17:32:34.836Z,18.30
2023-05-07T17:35:03.579Z,18.30
2023-05-07T17:37:31.837Z,18.30
2023-05-07T17:40:00.512Z,18.30
2023-05-07T17:42:28.738Z,18.20
2023-05-07T17:44:56.966Z,18.20
2023-05-07T17:47:26.559Z,18.10
2023-05-07T17:49:54.879Z,18.10
2023-05-07T17:52:24.118Z,18.00
2023-05-07T17:54:52.434Z,18.00
2023-05-07T17:57:20.661Z,18.00
2023-05-07T17:59:49.035Z,18.00
2023-05-07T18:02:17.244Z,17.90
2023-05-07T18:04:47.411Z,17.90
2023-05-07T18:07:15.725Z,17.90
2023-05-07T18:09:43.976Z,17.80
2023-05-07T18:12:12.234Z,17.80
2023-05-07T18:14:40.456Z,17.80
2023-05-07T18:17:08.703Z,17.80
2023-05-07T18:19:36.948Z,17.80
2023-05-07T18:22:06.602Z,17.80
2023-05-07T18:24:34.830Z,17.80
2023-05-07T18:27:03.153Z,17.70
2023-05-07T18:29:31.637Z,17.70
2023-05-07T18:31:59.936Z,17.70
2023-05-07T18:34:28.195Z,17.70
2023-05-07T18:36:56.475Z,17.60
2023-05-07T18:39:26.178Z,17.60
2023-05-07T18:41:54.506Z,17.60
2023-05-07T18:44:22.848Z,17.60
2023-05-07T18:46:51.146Z,17.50
2023-05-07T18:49:19.562Z,17.50
2023-05-07T18:51:47.881Z,17.50
2023-05-07T18:54:16.410Z,17.50
2023-05-07T18:56:46.991Z,17.50
2023-05-07T18:59:15.580Z,17.40
2023-05-07T19:01:44.293Z,17.40
2023-05-07T19:04:12.624Z,17.30
2023-05-07T19:06:40.891Z,17.30
2023-05-07T19:09:09.199Z,17.30
2023-05-07T19:11:37.451Z,17.30
2023-05-07T19:14:10.135Z,17.30
2023-05-07T19:16:38.829Z,17.30
2023-05-07T19:19:07.213Z,17.30
2023-05-07T19:21:35.487Z,17.20
2023-05-07T19:24:03.821Z,17.20
2023-05-07T19:26:32.262Z,17.10
2023-05-07T19:31:33.650Z,17.10
2023-05-07T19:34:02.939Z,17.10
2023-05-07T19:36:33.352Z,17.10
2023-05-07T19:39:01.972Z,17.00
2023-05-07T19:41:31.424Z,17.10
2023-05-07T19:44:03.846Z,17.10
2023-05-07T19:46:33.516Z,17.10
2023-05-07T19:49:02.302Z,17.10
2023-05-07T19:51:32.490Z,17.00
2023-05-07T19:54:02.547Z,17.00
2023-05-07T19:56:31.460Z,17.00
2023-05-07T19:59:03.525Z,17.00
2023-05-07T20:01:33.214Z,16.90
2023-05-07T20:04:01.653Z,16.90
2023-05-07T20:06:31.030Z,16.90
2023-05-07T20:08:59.308Z,16.90
2023-05-07T20:11:32.918Z,16.90
2023-05-07T20:14:01.442Z,16.80
2023-05-07T20:16:30.142Z,16.90
2023-05-07T20:18:59.914Z,16.90
2023-05-07T20:21:28.183Z,16.90
2023-05-07T20:23:56.939Z,16.90
2023-05-07T20:26:26.414Z,16.80
2023-05-07T20:28:54.726Z,16.80
2023-05-07T20:31:23.069Z,16.80
2023-05-07T20:33:51.422Z,16.80
2023-05-07T20:36:21.040Z,16.80
2023-05-07T20:38:49.280Z,16.80
2023-05-07T20:41:17.712Z,16.70
2023-05-07T20:43:46.222Z,16.70
2023-05-07T20:46:14.520Z,16.70
2023-05-07T20:48:43.306Z,16.70
2023-05-07T20:51:13.641Z,16.60
2023-05-07T20:53:45.470Z,16.70
2023-05-07T20:56:16.326Z,16.60
2023-05-07T20:58:44.596Z,16.60
2023-05-07T21:01:12.947Z,16.60
2023-05-07T21:03:41.290Z,16.60
2023-05-07T21:06:09.518Z,16.50
2023-05-07T21:08:37.788Z,16.50
2023-05-07T21:11:09.844Z,16.40
2023-05-07T21:13:38.135Z,16.40
2023-05-07T21:16:06.767Z,16.40
2023-05-07T21:18:35.025Z,16.40
2023-05-07T21:21:03.293Z,16.40
2023-05-07T21:23:31.531Z,16.40
2023-05-07T21:25:59.784Z,16.40
2023-05-07T21:28:29.517Z,16.40
2023-05-07T21:30:57.781Z,16.40
2023-05-07T21:33:26.027Z,16.40
2023-05-07T21:35:54.308Z,16.40
2023-05-07T21:38:22.499Z,16.30
2023-05-07T21:40:50.819Z,16.30
2023-05-07T21:43:19.042Z,16.30
2023-05-07T21:45:48.620Z,16.20
2023-05-07T21:48:18.528Z,16.20
2023-05-07T21:50:47.162Z,16.10
2023-05-07T21:53:15.485Z,16.10
2023-05-07T21:55:43.680Z,16.10
2023-05-07T21:58:11.916Z,16.10
2023-05-07T22:00:40.119Z,16.10
2023-05-07T22:03:09.983Z,16.10
2023-05-07T22:05:38.360Z,16.10
2023-05-07T22:08:06.757Z,16.10
2023-05-07T22:10:35.002Z,16.10
2023-05-07T22:13:03.209Z,16.10
2023-05-07T22:15:32.613Z,16.10
2023-05-07T22:18:02.093Z,16.00
2023-05-07T22:20:31.849Z,16.00
2023-05-07T22:23:00.021Z,16.00
2023-05-07T22:25:28.184Z,16.00
2023-05-07T22:27:56.437Z,16.00
2023-05-07T22:30:24.730Z,15.90
2023-05-07T22:32:53.183Z,15.80
2023-05-07T22:35:21.610Z,15.80
2023-05-07T22:37:51.197Z,15.80
2023-05-07T22:40:19.764Z,15.80
2023-05-07T22:42:47.929Z,15.90
2023-05-07T22:45:16.167Z,15.80
2023-05-07T22:47:44.403Z,15.80
2023-05-07T22:50:13.560Z,15.80
2023-05-07T22:52:41.983Z,15.80
2023-05-07T22:55:11.756Z,15.80
2023-05-07T22:57:39.942Z,15.80
2023-05-07T23:00:09.795Z,15.90
2023-05-07T23:02:38.290Z,15.90
2023-05-07T23:05:07.692Z,15.80
2023-05-07T23:07:36.029Z,15.80
2023-05-07T23:10:04.681Z,15.80
2023-05-07T23:12:34.289Z,15.70
2023-05-07T23:15:02.520Z,15.70
2023-05-07T23:17:30.744Z,15.70
2023-05-07T23:19:58.958Z,15.70
2023-05-07T23:22:27.355Z,15.70
2023-05-07T23:24:55.566Z,15.70
2023-05-07T23:27:23.789Z,15.70
2023-05-07T23:29:53.359Z,15.60
2023-05-07T23:32:21.558Z,15.70
2023-05-07T23:34:51.320Z,15.70
2023-05-07T23:37:19.564Z,15.70
2023-05-07T23:39:48.030Z,15.60
2023-05-07T23:42:16.460Z,15.60
2023-05-07T23:44:44.682Z,15.60
2023-05-07T23:47:14.284Z,15.60
2023-05-07T23:49:42.892Z,15.60
2023-05-07T23:52:11.076Z,15.50
2023-05-07T23:54:39.270Z,15.50
2023-05-07T23:57:07.507Z,15.50
2023-05-07T23:59:35.747Z,15.40
